Grand Island, New York
Current Conditions -  °F | °C
As of 11:01 PM on Saturday 22 Nov 2014 (Local Time) from KIAG Reporting Station
Overcast Overcast  
Wind Chill: 38°   Ceiling: 3000
Heat Index: 45°   Visibility: 10mi
Dew Point: 40°   Wind: 17mph
Humidity: 82%   Direction: 220°SW
Pressure: 29.97"   Gusts: 24mph
Location:  43.02°N, 78.96°W
Report Text: KIAG 230401Z AUTO 22015G21KT 10SM OVC030 07/04 A2997 RMK AO2 RAE0354 P0000 T00720044 $
Loading
Personal Weather Stations






























Interactive Weather Map New forecast layout! Learn more

10-Day Weather Forecast

Advertisements
Track Severe Weather on mobile